Time;durP1;ratioP1;P1;durP2;ratioP2;P2;SDS_P1;SDS_P2;PMS_P1;PMS_P2;Temp;Humidity;BMP_temperature;BMP_pressure;BME280_temperature;BME280_humidity;BME280_pressure;Samples;Min_cycle;Max_cycle;Signal;HPM_P1;HPM_P2
2023/08/19 14:17:54;;;;;;;3.47;2.17;;;28.30;67.70;;;;;;5151078;27;20850;-71
2023/08/19 14:20:22;;;;;;;3.60;1.90;;;29.20;66.20;;;;;;5094893;27;1200844;-72
2023/08/19 14:22:49;;;;;;;3.20;2.30;;;30.10;64.20;;;;;;5111126;28;20289;-71
2023/08/19 14:25:15;;;;;;;2.60;2.23;;;31.00;62.30;;;;;;5131573;22;20467;-72
2023/08/19 14:27:42;;;;;;;3.23;2.00;;;31.60;61.10;;;;;;5090661;28;20459;-71
2023/08/19 14:30:10;;;;;;;2.40;2.00;;;32.00;60.50;;;;;;5090316;28;20808;-72
2023/08/19 14:32:37;;;;;;;2.90;2.10;;;32.40;58.80;;;;;;5090481;28;20476;-72
2023/08/19 14:35:06;;;;;;;3.80;2.40;;;32.60;58.20;;;;;;5091570;28;20452;-73
2023/08/19 14:37:32;;;;;;;2.43;1.80;;;32.70;57.90;;;;;;5110827;28;20440;-72
2023/08/19 14:39:59;;;;;;;2.37;1.93;;;32.70;56.10;;;;;;5110740;28;20439;-72
2023/08/19 14:42:26;;;;;;;2.73;2.20;;;32.70;56.50;;;;;;5110717;28;20509;-72
2023/08/19 14:44:53;;;;;;;3.93;2.77;;;32.70;56.40;;;;;;5110338;28;20832;-72
2023/08/19 14:47:20;;;;;;;3.90;2.10;;;32.70;56.00;;;;;;5110512;28;20459;-72
2023/08/19 14:49:47;;;;;;;2.73;2.10;;;32.60;56.30;;;;;;5110591;28;20469;-72
2023/08/19 14:52:16;;;;;;;2.93;2.10;;;32.70;56.70;;;;;;5110464;28;20448;-71
2023/08/19 14:54:43;;;;;;;2.40;2.20;;;32.70;56.30;;;;;;5110503;28;20535;-71
2023/08/19 14:57:10;;;;;;;3.37;2.30;;;32.70;56.20;;;;;;5110350;28;20455;-71
2023/08/19 14:59:37;;;;;;;2.20;1.90;;;32.70;56.20;;;;;;5110415;28;20469;-73
2023/08/19 15:02:04;;;;;;;2.23;1.80;;;32.60;56.30;;;;;;5110322;28;20447;-71
2023/08/19 15:04:31;;;;;;;3.70;2.07;;;32.70;56.20;;;;;;5109972;28;20812;-71
2023/08/19 15:06:58;;;;;;;2.50;1.70;;;32.60;55.50;;;;;;5110177;28;20464;-72
2023/08/19 15:09:26;;;;;;;2.40;1.77;;;32.50;55.90;;;;;;5110204;28;20799;-71
2023/08/19 15:11:52;;;;;;;2.70;1.90;;;32.40;55.20;;;;;;5109812;28;20994;-72
2023/08/19 15:14:19;;;;;;;3.07;1.83;;;32.40;55.10;;;;;;5109741;28;20987;-72
2023/08/19 15:16:46;;;;;;;2.50;2.10;;;32.40;55.20;;;;;;5109662;28;20479;-72
2023/08/19 15:19:12;;;;;;;2.83;2.03;;;32.30;54.90;;;;;;5110818;28;20440;-72
2023/08/19 15:21:39;;;;;;;3.20;1.90;;;32.30;53.90;;;;;;5109955;28;20436;-71
2023/08/19 15:24:06;;;;;;;3.77;1.93;;;32.30;54.10;;;;;;5104712;28;20470;-71
2023/08/19 15:26:34;;;;;;;2.73;2.10;;;32.20;54.40;;;;;;5095998;28;20472;-72
2023/08/19 15:29:01;;;;;;;3.90;2.20;;;32.10;54.30;;;;;;5096284;28;20445;-71
2023/08/19 15:31:32;;;;;;;3.00;2.23;;;32.00;54.50;;;;;;5095932;28;20470;-72
2023/08/19 15:33:59;;;;;;;2.30;1.90;;;31.90;54.70;;;;;;5096128;28;20533;-74
2023/08/19 15:36:26;;;;;;;3.03;2.00;;;31.90;55.10;;;;;;5096058;28;20518;-74
2023/08/19 15:38:53;;;;;;;2.90;2.10;;;31.80;55.00;;;;;;5096048;28;20441;-74
2023/08/19 15:41:19;;;;;;;3.80;2.33;;;31.80;55.30;;;;;;5095989;28;20440;-74
2023/08/19 15:43:47;;;;;;;3.27;2.63;;;31.70;55.50;;;;;;5095962;28;20440;-74
2023/08/19 15:46:14;;;;;;;4.30;2.10;;;31.80;55.40;;;;;;5095858;28;20464;-74
2023/08/19 15:48:41;;;;;;;5.97;2.67;;;31.80;55.00;;;;;;5095811;28;20448;-74
2023/08/19 15:51:08;;;;;;;6.30;2.47;;;32.00;55.10;;;;;;5095835;28;20475;-74
2023/08/19 15:53:34;;;;;;;2.60;2.00;;;32.20;54.40;;;;;;5095710;28;20476;-74
2023/08/19 15:56:01;;;;;;;2.77;2.47;;;32.30;53.90;;;;;;5095353;28;21015;-73
2023/08/19 15:58:28;;;;;;;2.53;2.30;;;32.30;53.70;;;;;;5095711;28;20440;-73
2023/08/19 16:00:56;;;;;;;3.30;2.20;;;32.30;53.60;;;;;;5095657;28;20440;-73
2023/08/19 16:03:22;;;;;;;3.70;2.00;;;32.30;53.50;;;;;;5095601;28;20436;-72
2023/08/19 16:05:49;;;;;;;2.53;1.80;;;32.20;54.10;;;;;;5095515;28;20499;-73
2023/08/19 16:08:16;;;;;;;2.83;2.10;;;32.20;54.20;;;;;;5095631;28;20859;-76
2023/08/19 16:10:42;;;;;;;3.40;2.00;;;32.20;53.90;;;;;;5095241;28;20850;-76
2023/08/19 16:13:09;;;;;;;3.73;2.77;;;32.30;54.20;;;;;;5095411;28;20480;-73
2023/08/19 16:15:35;;;;;;;2.63;1.90;;;32.20;54.20;;;;;;5094994;28;20893;-73
2023/08/19 16:18:04;;;;;;;4.37;2.00;;;32.10;54.30;;;;;;5094985;28;20953;-73
2023/08/19 16:20:31;;;;;;;2.87;2.00;;;32.10;54.70;;;;;;5095277;28;20441;-73
2023/08/19 16:22:57;;;;;;;3.00;2.40;;;32.00;54.50;;;;;;5095212;28;20432;-74
2023/08/19 16:25:24;;;;;;;2.77;2.20;;;31.70;55.20;;;;;;5095650;28;20475;-73
2023/08/19 16:27:50;;;;;;;2.50;2.17;;;31.70;55.70;;;;;;5095145;28;20425;-73
2023/08/19 16:30:17;;;;;;;2.93;2.00;;;31.60;55.50;;;;;;5095086;28;20490;-73
2023/08/19 16:32:44;;;;;;;3.67;2.47;;;31.50;55.70;;;;;;5094953;28;20440;-73
2023/08/19 16:35:12;;;;;;;2.47;2.07;;;31.40;55.90;;;;;;5094462;28;20437;-74
2023/08/19 16:37:38;;;;;;;2.43;2.00;;;31.40;56.30;;;;;;5094378;28;20493;-73
2023/08/19 16:40:07;;;;;;;3.40;2.27;;;31.30;56.20;;;;;;5094912;28;20441;-74
2023/08/19 16:42:34;;;;;;;5.50;2.00;;;31.20;56.80;;;;;;5094827;28;20449;-74
2023/08/19 16:45:00;;;;;;;4.33;2.10;;;31.20;56.90;;;;;;5094715;28;20451;-74
2023/08/19 16:47:27;;;;;;;3.10;2.17;;;31.00;57.50;;;;;;5094722;28;20436;-74
2023/08/19 16:49:54;;;;;;;2.63;1.73;;;31.00;57.70;;;;;;5094710;28;20455;-73
2023/08/19 16:52:22;;;;;;;2.83;2.00;;;30.90;57.80;;;;;;5094359;28;20926;-74
2023/08/19 16:54:49;;;;;;;2.90;1.80;;;30.80;58.00;;;;;;5094240;28;21032;-73
2023/08/19 16:57:15;;;;;;;2.93;1.83;;;30.80;58.30;;;;;;5094160;28;20996;-73
2023/08/19 16:59:42;;;;;;;2.57;2.03;;;30.80;58.50;;;;;;5094518;28;20870;-73
2023/08/19 17:02:09;;;;;;;3.33;2.20;;;30.80;58.70;;;;;;5094450;28;20638;-73
2023/08/19 17:04:35;;;;;;;3.80;2.00;;;30.80;58.90;;;;;;5094108;28;20934;-73
2023/08/19 17:07:02;;;;;;;4.23;1.90;;;30.80;59.00;;;;;;5094330;28;20461;-72
2023/08/19 17:09:30;;;;;;;2.30;2.07;;;30.80;58.90;;;;;;5094030;28;21013;-73
2023/08/19 17:11:57;;;;;;;3.37;2.33;;;30.80;59.60;;;;;;5094275;28;20445;-72
2023/08/19 17:14:23;;;;;;;4.27;2.20;;;30.80;59.50;;;;;;5094176;28;20483;-72
2023/08/19 17:16:50;;;;;;;2.70;2.07;;;30.60;59.90;;;;;;5094125;28;20461;-74
2023/08/19 17:19:16;;;;;;;3.30;2.17;;;30.60;60.20;;;;;;5094150;28;20448;-73
2023/08/19 17:21:43;;;;;;;3.83;2.50;;;30.60;60.50;;;;;;5094130;28;20441;-72
2023/08/19 17:24:10;;;;;;;2.40;2.07;;;30.70;60.50;;;;;;5094131;28;20809;-73
2023/08/19 17:26:39;;;;;;;3.23;2.10;;;30.70;60.80;;;;;;5093528;28;20999;-73
2023/08/19 17:29:06;;;;;;;2.60;1.90;;;30.70;61.30;;;;;;5093646;28;20444;-73
2023/08/19 17:31:33;;;;;;;2.90;2.27;;;30.70;61.10;;;;;;5093954;28;20445;-73
2023/08/19 17:34:00;;;;;;;2.33;2.00;;;30.60;61.40;;;;;;5093816;28;20491;-72
2023/08/19 17:36:26;;;;;;;3.30;2.43;;;30.60;61.70;;;;;;5093852;28;20465;-72
2023/08/19 17:38:53;;;;;;;3.23;2.20;;;30.60;62.20;;;;;;5093922;28;20809;-73
2023/08/19 17:41:20;;;;;;;3.63;2.00;;;30.50;61.90;;;;;;5093427;28;20822;-73
2023/08/19 17:43:48;;;;;;;3.10;2.70;;;30.40;62.10;;;;;;5094405;28;20445;-73
2023/08/19 17:46:15;;;;;;;2.80;2.23;;;30.40;62.40;;;;;;5093762;28;20878;-72
2023/08/19 17:48:42;;;;;;;3.47;2.13;;;30.40;62.80;;;;;;5093425;28;20510;-72
2023/08/19 17:51:08;;;;;;;3.23;2.03;;;30.30;62.50;;;;;;5093620;28;20436;-71
2023/08/19 17:53:35;;;;;;;3.53;2.50;;;30.40;62.80;;;;;;5093486;28;20476;-72
2023/08/19 17:56:02;;;;;;;2.93;2.20;;;30.40;62.60;;;;;;5093194;28;20965;-72
2023/08/19 17:58:30;;;;;;;3.03;2.50;;;30.20;63.20;;;;;;5093625;28;20452;-73
2023/08/19 18:00:58;;;;;;;2.60;2.00;;;30.10;63.70;;;;;;5093551;28;20532;-72
2023/08/19 18:03:26;;;;;;;3.60;2.10;;;30.10;63.60;;;;;;5093650;28;20816;-74
2023/08/19 18:05:53;;;;;;;2.20;2.00;;;30.10;63.80;;;;;;5093583;28;20468;-73
2023/08/19 18:08:19;;;;;;;4.37;2.60;;;30.10;63.70;;;;;;5093378;28;20444;-72
2023/08/19 18:10:46;;;;;;;3.97;2.40;;;30.10;64.10;;;;;;5093461;28;20461;-72
2023/08/19 18:13:13;;;;;;;3.23;2.40;;;30.00;64.40;;;;;;5093203;28;20448;-73
2023/08/19 18:15:39;;;;;;;3.00;2.23;;;30.00;64.50;;;;;;5093381;28;20465;-72
2023/08/19 18:18:07;;;;;;;3.80;2.70;;;30.10;64.50;;;;;;5093012;28;20444;-72
2023/08/19 18:20:34;;;;;;;2.87;2.23;;;30.00;64.70;;;;;;5092996;28;20934;-72
2023/08/19 18:23:01;;;;;;;3.93;1.90;;;30.10;64.30;;;;;;5093292;28;20448;-73
2023/08/19 18:25:28;;;;;;;2.97;2.20;;;30.00;64.90;;;;;;5093020;28;20480;-72
2023/08/19 18:27:55;;;;;;;4.80;2.83;;;30.00;64.80;;;;;;5093463;28;20425;-72
2023/08/19 18:30:21;;;;;;;3.50;2.73;;;30.00;65.20;;;;;;5093489;28;20451;-73
2023/08/19 18:32:50;;;;;;;2.90;2.27;;;29.90;65.30;;;;;;5093149;28;20848;-73
2023/08/19 18:35:19;;;;;;;2.40;2.00;;;29.90;65.40;;;;;;5092824;28;20910;-73
2023/08/19 18:37:46;;;;;;;3.27;2.97;;;29.90;65.40;;;;;;5093263;28;20515;-73
2023/08/19 18:40:14;;;;;;;3.63;2.50;;;29.90;65.40;;;;;;5093305;28;20440;-71
2023/08/19 18:42:42;;;;;;;2.60;2.20;;;29.90;65.60;;;;;;5093156;28;20531;-73
2023/08/19 18:45:11;;;;;;;3.07;2.67;;;29.90;65.60;;;;;;5093089;28;20436;-71
2023/08/19 18:48:01;;;;;;;3.63;2.80;;;29.90;66.10;;;;;;5092862;28;20834;-72
2023/08/19 18:50:29;;;;;;;2.73;2.20;;;29.80;66.40;;;;;;5093393;28;20456;-74
2023/08/19 18:52:55;;;;;;;3.50;2.80;;;29.80;66.20;;;;;;5092848;28;20933;-75
2023/08/19 18:55:22;;;;;;;2.73;2.43;;;29.70;67.10;;;;;;5092736;28;21019;-74
2023/08/19 18:57:49;;;;;;;2.90;2.53;;;29.70;67.20;;;;;;5093566;28;20528;-75
2023/08/19 19:00:16;;;;;;;3.23;2.90;;;29.70;67.10;;;;;;5095910;28;20493;-75
2023/08/19 19:02:43;;;;;;;3.53;2.97;;;29.70;67.40;;;;;;5096877;28;20865;-76
2023/08/19 19:05:10;;;;;;;3.67;2.70;;;29.60;67.20;;;;;;5097056;28;20445;-77
2023/08/19 19:07:38;;;;;;;3.10;2.60;;;29.50;67.80;;;;;;5097701;28;20448;-76
2023/08/19 19:10:06;;;;;;;3.77;2.70;;;29.40;68.10;;;;;;5098367;28;20852;-76
2023/08/19 19:12:33;;;;;;;3.40;2.27;;;29.40;67.80;;;;;;5099554;28;20515;-75
2023/08/19 19:15:00;;;;;;;3.80;2.27;;;29.40;67.80;;;;;;5099242;28;21012;-75
2023/08/19 19:17:26;;;;;;;3.03;2.53;;;29.30;68.50;;;;;;5098973;28;20448;-74
2023/08/19 19:19:53;;;;;;;3.20;2.70;;;29.30;68.80;;;;;;5099675;28;20436;-75
2023/08/19 19:22:20;;;;;;;3.07;2.50;;;29.20;68.30;;;;;;5099406;28;20474;-75
2023/08/19 19:24:48;;;;;;;3.10;2.60;;;29.20;68.40;;;;;;5099104;28;20897;-75
2023/08/19 19:27:14;;;;;;;3.00;2.50;;;29.20;68.80;;;;;;5098479;28;20877;-75
2023/08/19 19:29:41;;;;;;;3.97;3.10;;;29.20;68.80;;;;;;5099220;28;20874;-75
2023/08/19 19:32:08;;;;;;;2.73;2.20;;;29.20;69.10;;;;;;5099371;28;20953;-75
2023/08/19 19:34:35;;;;;;;3.00;2.63;;;29.10;68.90;;;;;;5099247;28;21045;-75
2023/08/19 19:37:02;;;;;;;3.43;2.83;;;29.00;69.10;;;;;;5099011;28;20521;-74
2023/08/19 19:39:29;;;;;;;7.73;3.33;;;29.00;68.70;;;;;;5098556;28;20859;-76
2023/08/19 19:41:57;;;;;;;3.43;2.87;;;29.00;68.90;;;;;;5098237;28;20445;-75
2023/08/19 19:44:23;;;;;;;3.07;2.53;;;28.90;69.10;;;;;;5098903;28;20486;-75
2023/08/19 19:46:50;;;;;;;2.90;2.70;;;28.90;69.60;;;;;;5098136;28;20464;-76
2023/08/19 19:49:17;;;;;;;3.40;2.70;;;28.90;69.30;;;;;;5100661;28;20449;-76
2023/08/19 19:51:43;;;;;;;5.13;2.50;;;28.80;69.00;;;;;;5097103;28;20449;-74
2023/08/19 19:54:10;;;;;;;3.30;2.33;;;28.70;69.30;;;;;;5098065;28;20554;-75
2023/08/19 19:56:37;;;;;;;4.50;2.30;;;28.70;69.80;;;;;;5097615;28;20490;-75
2023/08/19 19:59:05;;;;;;;2.50;2.30;;;28.60;69.60;;;;;;5097098;28;20448;-75
2023/08/19 20:01:31;;;;;;;3.47;2.60;;;28.60;69.70;;;;;;5099183;28;20441;-75
2023/08/19 20:03:58;;;;;;;3.07;2.37;;;28.60;70.10;;;;;;5098967;28;20437;-74
2023/08/19 20:06:25;;;;;;;2.83;2.47;;;28.60;70.20;;;;;;5098288;28;20482;-74
2023/08/19 20:08:51;;;;;;;3.20;2.67;;;28.60;70.40;;;;;;5100380;28;20494;-74
2023/08/19 20:11:18;;;;;;;3.47;2.60;;;28.60;70.40;;;;;;5097831;28;20444;-75
2023/08/19 20:13:45;;;;;;;4.17;2.90;;;28.50;70.30;;;;;;5097494;28;20448;-75
2023/08/19 20:16:13;;;;;;;6.50;3.40;;;28.50;70.30;;;;;;5098020;28;20456;-75
2023/08/19 20:18:39;;;;;;;4.03;2.90;;;28.40;70.60;;;;;;5098350;28;20445;-75
2023/08/19 20:21:06;;;;;;;3.00;2.70;;;28.40;71.00;;;;;;5098819;28;20925;-75
2023/08/19 20:23:33;;;;;;;2.80;2.60;;;28.30;70.90;;;;;;5099760;28;20456;-73
2023/08/19 20:25:59;;;;;;;2.80;2.50;;;28.20;71.20;;;;;;5134781;22;20555;-72
2023/08/19 20:28:26;;;;;;;3.07;2.77;;;28.20;71.20;;;;;;5074925;28;20445;-72
